createdAt,value
2022-12-26T00:00:22.544Z,4.43
2022-12-26T00:02:49.263Z,4.57
2022-12-26T00:05:15.967Z,5.00
2022-12-26T00:07:42.516Z,4.97
2022-12-26T00:10:09.144Z,5.40
2022-12-26T00:12:35.753Z,5.23
2022-12-26T00:15:02.377Z,5.28
2022-12-26T00:17:28.927Z,5.47
2022-12-26T00:19:55.481Z,5.38
2022-12-26T00:22:22.107Z,5.93
2022-12-26T00:24:48.696Z,5.50
2022-12-26T00:27:15.258Z,5.68
2022-12-26T00:29:41.804Z,5.88
2022-12-26T00:32:08.408Z,6.22
2022-12-26T00:34:34.986Z,6.40
2022-12-26T00:37:01.552Z,6.40
2022-12-26T00:39:28.092Z,5.70
2022-12-26T00:41:54.667Z,5.60
2022-12-26T00:44:21.223Z,6.35
2022-12-26T00:46:47.783Z,6.35
2022-12-26T00:49:14.394Z,10.87
2022-12-26T00:51:40.976Z,6.53
2022-12-26T00:54:07.599Z,6.55
2022-12-26T00:56:34.192Z,5.97
2022-12-26T00:59:00.783Z,6.78
2022-12-26T01:01:31.066Z,6.40
2022-12-26T01:03:58.690Z,6.45
2022-12-26T01:06:25.607Z,6.13
2022-12-26T01:08:53.518Z,4.95
2022-12-26T01:11:38.649Z,5.82
2022-12-26T01:14:05.944Z,4.93
2022-12-26T01:16:32.677Z,5.45
2022-12-26T01:18:59.287Z,5.50
2022-12-26T01:21:25.858Z,4.75
2022-12-26T01:23:52.688Z,6.15
2022-12-26T01:26:20.332Z,5.57
2022-12-26T01:28:52.842Z,6.20
2022-12-26T01:31:20.748Z,6.78
2022-12-26T01:33:47.832Z,6.68
2022-12-26T01:36:15.596Z,6.35
2022-12-26T01:38:42.172Z,5.93
2022-12-26T01:41:17.866Z,6.18
2022-12-26T01:44:00.206Z,7.65
2022-12-26T01:46:40.789Z,6.45
2022-12-26T01:49:14.141Z,6.90
2022-12-26T01:51:45.200Z,7.90
2022-12-26T01:54:40.129Z,7.93
2022-12-26T01:57:05.189Z,6.57
2022-12-26T01:59:35.643Z,8.32
2022-12-26T02:02:05.034Z,7.82
2022-12-26T02:04:58.961Z,8.63
2022-12-26T02:07:26.694Z,7.63
2022-12-26T02:09:53.796Z,8.25
2022-12-26T02:12:34.204Z,8.20
2022-12-26T02:15:07.370Z,8.27
2022-12-26T02:17:34.004Z,8.53
2022-12-26T02:20:17.395Z,8.63
2022-12-26T02:22:44.866Z,8.85
2022-12-26T02:25:57.933Z,8.18
2022-12-26T02:28:37.501Z,8.38
2022-12-26T02:31:11.114Z,8.07
2022-12-26T02:33:56.312Z,8.27
2022-12-26T02:36:41.774Z,8.45
2022-12-26T02:39:45.664Z,8.70
2022-12-26T02:42:19.496Z,8.23
2022-12-26T02:45:13.135Z,8.93
2022-12-26T02:47:54.929Z,8.70
2022-12-26T02:50:57.351Z,8.93
2022-12-26T02:53:56.213Z,7.97
2022-12-26T02:56:49.969Z,9.27
2022-12-26T02:59:55.894Z,9.00
2022-12-26T03:02:57.327Z,8.45
2022-12-26T03:05:55.080Z,8.45
2022-12-26T03:08:52.572Z,9.00
2022-12-26T03:11:37.859Z,8.70
2022-12-26T03:14:17.689Z,9.57
2022-12-26T03:17:08.246Z,9.10
2022-12-26T03:19:58.115Z,9.35
2022-12-26T03:22:46.650Z,8.52
2022-12-26T03:25:38.816Z,9.43
2022-12-26T03:28:05.344Z,8.60
2022-12-26T03:30:50.133Z,8.57
2022-12-26T03:33:37.840Z,9.13
2022-12-26T03:36:06.106Z,8.38
2022-12-26T03:38:51.394Z,10.20
2022-12-26T03:41:48.613Z,9.90
2022-12-26T03:44:53.907Z,9.07
2022-12-26T03:47:58.470Z,8.52
2022-12-26T03:50:53.934Z,9.35
2022-12-26T03:53:46.943Z,7.82
2022-12-26T03:56:39.906Z,8.43
2022-12-26T03:59:29.998Z,8.60
2022-12-26T04:02:21.953Z,9.40
2022-12-26T04:05:10.112Z,8.02
2022-12-26T04:08:02.068Z,8.32
2022-12-26T04:10:52.405Z,8.53
2022-12-26T04:14:13.346Z,7.95
2022-12-26T04:17:04.936Z,7.40
2022-12-26T04:19:51.969Z,7.88
2022-12-26T04:22:41.307Z,7.70
2022-12-26T04:25:48.415Z,7.97
2022-12-26T04:28:35.809Z,7.25
2022-12-26T04:31:28.488Z,6.80
2022-12-26T04:34:20.154Z,7.20
2022-12-26T04:37:14.961Z,6.57
2022-12-26T04:40:04.040Z,6.20
2022-12-26T04:42:50.793Z,6.55
2022-12-26T04:45:19.069Z,6.70
2022-12-26T04:48:06.919Z,6.22
2022-12-26T04:50:33.477Z,6.47
2022-12-26T04:53:00.564Z,6.20
2022-12-26T04:55:30.953Z,6.70
2022-12-26T04:57:58.086Z,6.10
2022-12-26T05:00:28.006Z,6.25
2022-12-26T05:03:18.781Z,7.30
2022-12-26T05:06:07.736Z,6.73
2022-12-26T05:08:56.994Z,7.40
2022-12-26T05:11:24.333Z,6.47
2022-12-26T05:13:53.753Z,6.60
2022-12-26T05:16:39.389Z,7.68
2022-12-26T05:19:25.374Z,7.30
2022-12-26T05:22:10.285Z,7.65
2022-12-26T05:24:58.073Z,8.15
2022-12-26T05:27:46.431Z,8.07
2022-12-26T05:30:13.129Z,7.43
2022-12-26T05:32:58.399Z,7.80
2022-12-26T05:35:25.183Z,7.55
2022-12-26T05:37:51.869Z,7.35
2022-12-26T05:40:18.513Z,7.30
2022-12-26T05:42:45.839Z,7.13
2022-12-26T05:45:12.462Z,6.70
2022-12-26T05:47:40.065Z,7.15
2022-12-26T05:50:07.314Z,6.57
2022-12-26T05:52:33.950Z,6.75
2022-12-26T05:55:00.639Z,6.13
2022-12-26T05:57:27.511Z,5.90
2022-12-26T05:59:54.350Z,6.13
2022-12-26T06:02:21.289Z,5.93
2022-12-26T06:04:48.117Z,5.45
2022-12-26T06:07:16.239Z,5.40
2022-12-26T06:09:43.253Z,4.97
2022-12-26T06:12:16.167Z,5.68
2022-12-26T06:14:44.009Z,5.18
2022-12-26T06:17:10.748Z,4.50
2022-12-26T06:19:46.377Z,4.47
2022-12-26T06:22:25.761Z,4.03
2022-12-26T06:24:52.378Z,4.22
2022-12-26T06:27:33.447Z,4.68
2022-12-26T06:30:00.431Z,3.67
2022-12-26T06:35:08.238Z,3.40
2022-12-26T06:37:36.353Z,3.30
2022-12-26T06:40:03.061Z,3.67
2022-12-26T06:42:55.961Z,2.85
2022-12-26T06:45:22.987Z,3.38
2022-12-26T06:47:49.581Z,3.43
2022-12-26T06:50:19.671Z,3.10
2022-12-26T06:52:50.134Z,3.08
2022-12-26T06:55:16.820Z,3.35
2022-12-26T06:57:48.569Z,2.85
2022-12-26T07:00:15.797Z,3.57
2022-12-26T07:02:42.686Z,3.33
2022-12-26T07:08:02.690Z,3.15
2022-12-26T07:19:30.877Z,2.90
2022-12-26T07:28:11.045Z,2.33
2022-12-26T07:30:38.849Z,2.65
2022-12-26T07:33:09.214Z,2.38
2022-12-26T07:35:35.813Z,2.70
2022-12-26T07:38:02.449Z,2.20
2022-12-26T07:40:29.530Z,2.27
2022-12-26T07:42:57.549Z,2.35
2022-12-26T07:45:25.345Z,2.42
2022-12-26T07:47:54.432Z,2.25
2022-12-26T07:50:21.397Z,2.22
2022-12-26T07:52:47.971Z,2.37
2022-12-26T07:55:14.961Z,2.70
2022-12-26T07:57:49.559Z,2.10
2022-12-26T08:00:16.666Z,1.67
2022-12-26T08:02:43.543Z,2.05
2022-12-26T08:05:10.491Z,2.07
2022-12-26T08:07:39.651Z,1.60
2022-12-26T08:10:08.301Z,1.70
2022-12-26T08:12:35.088Z,1.70
2022-12-26T08:15:07.177Z,1.80
2022-12-26T08:17:34.000Z,1.30
2022-12-26T08:20:00.515Z,1.02
2022-12-26T08:22:27.686Z,1.40
2022-12-26T08:24:54.280Z,1.25
2022-12-26T08:27:21.091Z,1.27
2022-12-26T08:29:49.116Z,0.83
2022-12-26T08:32:15.671Z,0.80
2022-12-26T08:34:42.363Z,0.98
2022-12-26T08:37:08.982Z,1.10
2022-12-26T08:39:40.594Z,1.10
2022-12-26T08:42:07.133Z,0.70
2022-12-26T08:44:33.659Z,0.80
2022-12-26T08:47:00.199Z,1.08
2022-12-26T08:49:27.845Z,1.30
2022-12-26T08:51:54.433Z,0.88
2022-12-26T08:54:21.009Z,0.90
2022-12-26T08:56:47.532Z,0.90
2022-12-26T08:59:14.800Z,0.85
2022-12-26T09:01:41.497Z,1.00
2022-12-26T09:04:08.082Z,1.05
2022-12-26T09:06:36.949Z,0.70
2022-12-26T09:09:04.634Z,1.23
2022-12-26T09:11:31.906Z,1.20
2022-12-26T09:14:01.373Z,0.95
2022-12-26T09:16:37.520Z,0.80
2022-12-26T09:19:07.789Z,1.23
2022-12-26T09:21:34.448Z,0.73
2022-12-26T09:24:05.203Z,0.90
2022-12-26T09:26:33.842Z,0.45
2022-12-26T09:29:00.555Z,0.57
2022-12-26T09:31:29.714Z,0.90
2022-12-26T09:33:56.591Z,0.75
2022-12-26T09:36:27.636Z,0.90
2022-12-26T09:38:56.210Z,0.90
2022-12-26T09:41:37.205Z,0.65
2022-12-26T09:44:14.673Z,0.47
2022-12-26T09:47:01.036Z,0.43
2022-12-26T09:49:34.742Z,0.85
2022-12-26T09:52:09.438Z,0.50
2022-12-26T09:54:46.634Z,0.50
2022-12-26T09:57:19.979Z,0.40
2022-12-26T09:59:54.319Z,0.75
2022-12-26T10:02:24.477Z,0.40
2022-12-26T10:04:53.595Z,0.60
2022-12-26T10:07:39.441Z,0.90
2022-12-26T10:10:17.220Z,0.20
2022-12-26T10:13:06.092Z,0.57
2022-12-26T10:15:46.234Z,0.80
2022-12-26T10:18:30.568Z,0.38
2022-12-26T10:21:23.434Z,0.20
2022-12-26T10:23:58.830Z,0.40
2022-12-26T10:26:33.250Z,0.30
2022-12-26T10:29:16.134Z,0.40
2022-12-26T10:32:06.712Z,0.57
2022-12-26T10:34:42.124Z,0.63
2022-12-26T10:37:22.990Z,0.33
2022-12-26T10:40:18.714Z,0.30
2022-12-26T10:42:50.583Z,0.20
2022-12-26T10:45:27.743Z,0.40
2022-12-26T10:47:55.166Z,0.22
2022-12-26T10:50:30.422Z,0.50
2022-12-26T10:52:58.913Z,0.22
2022-12-26T10:55:31.860Z,0.40
2022-12-26T10:58:16.766Z,0.22
2022-12-26T11:00:45.006Z,0.20
2022-12-26T11:03:14.651Z,0.30
2022-12-26T11:06:06.952Z,0.68
2022-12-26T11:08:42.978Z,0.55
2022-12-26T11:11:23.180Z,0.20
2022-12-26T11:14:01.812Z,0.20
2022-12-26T11:16:34.930Z,0.40
2022-12-26T11:19:01.863Z,0.57
2022-12-26T11:21:30.398Z,0.10
2022-12-26T11:24:07.057Z,0.30
2022-12-26T11:26:33.845Z,0.15
2022-12-26T11:29:11.243Z,0.20
2022-12-26T11:31:40.639Z,0.10
2022-12-26T11:34:11.485Z,0.17
2022-12-26T11:36:45.373Z,0.17
2022-12-26T11:39:25.918Z,0.20
2022-12-26T11:41:53.036Z,0.20
2022-12-26T11:44:28.642Z,0.20
2022-12-26T11:47:07.385Z,0.10
2022-12-26T11:49:37.826Z,0.03
2022-12-26T11:52:37.411Z,0.20
2022-12-26T11:55:22.372Z,0.10
2022-12-26T11:58:12.399Z,0.10
2022-12-26T12:00:50.415Z,0.10
2022-12-26T12:03:18.429Z,0.10
2022-12-26T12:06:01.683Z,0.10
2022-12-26T12:08:35.223Z,0.10
2022-12-26T12:11:02.797Z,0.20
2022-12-26T12:13:49.210Z,0.10
2022-12-26T12:16:24.007Z,0.10
2022-12-26T12:19:04.374Z,0.13
2022-12-26T12:21:38.785Z,0.17
2022-12-26T12:24:41.228Z,0.10
2022-12-26T12:27:14.961Z,0.10
2022-12-26T12:30:06.397Z,0.20
2022-12-26T12:32:35.915Z,0.22
2022-12-26T12:35:20.417Z,0.10
2022-12-26T12:38:05.039Z,0.10
2022-12-26T12:40:36.374Z,0.20
2022-12-26T12:43:15.886Z,0.10
2022-12-26T12:45:51.067Z,0.10
2022-12-26T12:48:27.654Z,0.20
2022-12-26T12:51:16.703Z,0.10
2022-12-26T12:53:59.712Z,0.20
2022-12-26T12:56:28.548Z,0.30
2022-12-26T12:59:17.566Z,0.20
2022-12-26T13:01:49.606Z,0.30
2022-12-26T13:04:22.863Z,0.10
2022-12-26T13:06:56.984Z,0.10
2022-12-26T13:09:32.840Z,0.20
2022-12-26T13:12:05.364Z,0.13
2022-12-26T13:14:39.768Z,0.13
2022-12-26T13:17:17.862Z,0.00
2022-12-26T13:20:00.202Z,0.10
2022-12-26T13:22:58.259Z,0.20
2022-12-26T13:25:30.952Z,0.10
2022-12-26T13:28:09.377Z,0.10
2022-12-26T13:30:37.544Z,0.22
2022-12-26T13:33:05.542Z,0.40
2022-12-26T13:35:58.588Z,0.17
2022-12-26T13:38:49.223Z,0.10
2022-12-26T13:41:39.092Z,0.20
2022-12-26T13:44:23.213Z,0.10
2022-12-26T13:46:50.712Z,0.10
2022-12-26T13:49:36.154Z,0.38
2022-12-26T13:52:26.773Z,0.20
2022-12-26T13:54:53.342Z,0.20
2022-12-26T13:57:23.063Z,0.30
2022-12-26T14:00:05.793Z,0.30
2022-12-26T14:03:16.910Z,0.30
2022-12-26T14:05:46.674Z,0.30
2022-12-26T14:08:31.578Z,0.20
2022-12-26T14:11:03.814Z,0.20
2022-12-26T14:14:01.827Z,0.20
2022-12-26T14:16:58.607Z,0.20
2022-12-26T14:19:52.202Z,0.10
2022-12-26T14:22:58.556Z,0.10
2022-12-26T14:25:33.913Z,0.10
2022-12-26T14:28:28.192Z,0.10
2022-12-26T14:31:03.306Z,0.40
2022-12-26T14:33:37.859Z,0.20
2022-12-26T14:36:27.824Z,0.37
2022-12-26T14:39:05.503Z,0.10
2022-12-26T14:42:25.585Z,0.20
2022-12-26T14:44:56.794Z,0.32
2022-12-26T14:47:43.626Z,0.45
2022-12-26T14:50:32.284Z,0.20
2022-12-26T14:53:30.407Z,0.20
2022-12-26T14:56:31.642Z,0.30
2022-12-26T14:59:24.083Z,0.20
2022-12-26T15:02:02.846Z,0.57
2022-12-26T15:05:05.528Z,0.30
2022-12-26T15:07:58.484Z,0.20
2022-12-26T15:10:36.112Z,0.20
2022-12-26T15:13:28.829Z,0.20
2022-12-26T15:16:16.548Z,0.10
2022-12-26T15:19:21.087Z,0.20
2022-12-26T15:22:06.964Z,0.20
2022-12-26T15:28:28.194Z,0.20
2022-12-26T15:31:07.906Z,0.20
2022-12-26T15:33:40.390Z,0.30
2022-12-26T15:36:23.360Z,0.20
2022-12-26T15:39:02.959Z,0.85
2022-12-26T15:41:39.782Z,0.20
2022-12-26T15:44:26.736Z,0.30
2022-12-26T15:47:08.325Z,0.20
2022-12-26T15:49:42.498Z,0.20
2022-12-26T15:52:52.583Z,1.85
2022-12-26T15:55:43.714Z,0.20
2022-12-26T15:58:36.054Z,0.30
2022-12-26T16:01:03.589Z,0.30
2022-12-26T16:03:39.506Z,0.70
2022-12-26T16:06:38.722Z,1.77
2022-12-26T16:09:16.001Z,0.38
2022-12-26T16:11:57.506Z,0.40
2022-12-26T16:14:36.362Z,0.20
2022-12-26T16:17:17.885Z,0.47
2022-12-26T16:19:46.748Z,0.30
2022-12-26T16:22:35.796Z,0.40
2022-12-26T16:25:04.168Z,0.30
2022-12-26T16:27:31.007Z,0.40
2022-12-26T16:30:11.229Z,0.30
2022-12-26T16:32:41.720Z,0.40
2022-12-26T16:35:18.343Z,0.20
2022-12-26T16:37:45.219Z,0.60
2022-12-26T16:40:11.735Z,0.50
2022-12-26T16:42:42.697Z,0.50
2022-12-26T16:45:19.983Z,0.60
2022-12-26T16:47:48.458Z,0.60
2022-12-26T16:50:18.253Z,0.60
2022-12-26T16:52:46.953Z,0.60
2022-12-26T16:55:37.221Z,0.70
2022-12-26T16:58:15.403Z,0.60
2022-12-26T17:00:48.266Z,0.55
2022-12-26T17:03:25.987Z,0.50
2022-12-26T17:05:52.679Z,0.50
2022-12-26T17:08:19.419Z,0.70
2022-12-26T17:10:50.965Z,0.60
2022-12-26T17:13:22.359Z,0.50
2022-12-26T17:15:55.586Z,0.60
2022-12-26T17:18:38.038Z,1.03
2022-12-26T17:21:30.155Z,0.88
2022-12-26T17:24:05.298Z,0.45
2022-12-26T17:26:31.937Z,0.57
2022-12-26T17:28:59.032Z,0.57
2022-12-26T17:31:39.231Z,0.50
2022-12-26T17:34:15.403Z,0.60
2022-12-26T17:39:29.551Z,0.25
2022-12-26T17:42:00.280Z,0.30
2022-12-26T17:44:42.470Z,0.43
2022-12-26T17:47:21.521Z,0.47
2022-12-26T17:49:49.831Z,0.50
2022-12-26T17:52:20.453Z,0.65
2022-12-26T17:54:49.216Z,0.60
2022-12-26T17:57:18.522Z,0.70
2022-12-26T17:59:45.815Z,0.40
2022-12-26T18:02:12.517Z,0.52
2022-12-26T18:04:39.281Z,0.80
2022-12-26T18:07:06.636Z,1.05
2022-12-26T18:09:34.605Z,0.80
2022-12-26T18:12:01.138Z,1.00
2022-12-26T18:14:27.726Z,0.80
2022-12-26T18:16:56.552Z,0.90
2022-12-26T18:19:23.151Z,0.80
2022-12-26T18:21:49.709Z,0.70
2022-12-26T18:24:16.259Z,0.90
2022-12-26T18:26:43.681Z,0.60
2022-12-26T18:29:11.287Z,0.70
2022-12-26T18:31:38.254Z,0.70
2022-12-26T18:34:05.048Z,0.70
2022-12-26T18:36:35.431Z,0.70
2022-12-26T18:39:04.158Z,0.93
2022-12-26T18:41:31.119Z,0.68
2022-12-26T18:43:58.239Z,0.77
2022-12-26T18:46:26.948Z,0.80
2022-12-26T18:48:54.340Z,0.60
2022-12-26T18:51:21.657Z,0.75
2022-12-26T18:53:48.518Z,0.50
2022-12-26T18:56:19.075Z,0.60
2022-12-26T18:58:49.101Z,0.60
2022-12-26T19:01:20.180Z,0.43
2022-12-26T19:03:47.682Z,0.60
2022-12-26T19:06:19.467Z,0.50
2022-12-26T19:08:47.229Z,1.23
2022-12-26T19:11:14.681Z,0.80
2022-12-26T19:13:41.889Z,0.40
2022-12-26T19:16:08.863Z,0.60
2022-12-26T19:18:35.677Z,0.68
2022-12-26T19:21:02.282Z,0.40
2022-12-26T19:23:29.046Z,0.57
2022-12-26T19:25:55.702Z,0.60
2022-12-26T19:28:22.602Z,0.35
2022-12-26T19:30:49.186Z,0.47
2022-12-26T19:33:15.769Z,0.40
2022-12-26T19:35:42.440Z,1.00
2022-12-26T19:38:09.062Z,0.40
2022-12-26T19:40:35.670Z,0.40
2022-12-26T19:43:02.361Z,0.40
2022-12-26T19:45:29.194Z,0.43
2022-12-26T19:47:58.461Z,0.43
2022-12-26T19:50:25.089Z,0.75
2022-12-26T19:52:51.749Z,0.60
2022-12-26T19:55:18.672Z,0.50
2022-12-26T19:57:45.256Z,0.50
2022-12-26T20:00:12.530Z,0.40
2022-12-26T20:02:41.045Z,0.60
2022-12-26T20:05:08.201Z,0.30
2022-12-26T20:07:35.060Z,0.50
2022-12-26T20:10:01.701Z,0.35
2022-12-26T20:12:28.311Z,0.20
2022-12-26T20:14:54.855Z,0.50
2022-12-26T20:17:21.813Z,0.60
2022-12-26T20:19:50.123Z,0.98
2022-12-26T20:22:16.827Z,1.00
2022-12-26T20:24:43.379Z,0.67
2022-12-26T20:27:09.972Z,0.73
2022-12-26T20:29:36.695Z,1.00
2022-12-26T20:32:04.276Z,1.35
2022-12-26T20:34:30.858Z,1.40
2022-12-26T20:36:57.417Z,0.60
2022-12-26T20:39:26.560Z,0.40
2022-12-26T20:41:53.241Z,0.63
2022-12-26T20:44:19.872Z,0.73
2022-12-26T20:46:46.889Z,0.47
2022-12-26T20:49:14.428Z,0.20
2022-12-26T20:51:42.690Z,0.25
2022-12-26T20:54:11.209Z,0.50
2022-12-26T20:56:39.698Z,0.50
2022-12-26T20:59:06.683Z,0.60
2022-12-26T21:01:33.838Z,0.53
2022-12-26T21:04:01.076Z,0.30
2022-12-26T21:06:31.399Z,0.40
2022-12-26T21:08:58.477Z,0.57
2022-12-26T21:11:27.773Z,0.60
2022-12-26T21:13:57.753Z,0.30
2022-12-26T21:16:27.594Z,0.30
2022-12-26T21:18:56.482Z,0.57
2022-12-26T21:21:31.667Z,0.60
2022-12-26T21:24:01.201Z,0.50
2022-12-26T21:26:28.740Z,0.43
2022-12-26T21:28:57.124Z,0.30
2022-12-26T21:31:24.226Z,0.40
2022-12-26T21:33:50.754Z,0.30
2022-12-26T21:36:17.353Z,0.20
2022-12-26T21:38:43.960Z,0.53
2022-12-26T21:41:12.275Z,0.25
2022-12-26T21:43:39.122Z,0.20
2022-12-26T21:46:08.989Z,0.30
2022-12-26T21:48:36.406Z,0.30
2022-12-26T21:51:07.296Z,0.20
2022-12-26T21:53:33.957Z,0.30
2022-12-26T21:56:06.216Z,0.30
2022-12-26T21:58:52.768Z,0.25
2022-12-26T22:01:21.458Z,0.30
2022-12-26T22:04:07.008Z,0.50
2022-12-26T22:06:33.704Z,0.30
2022-12-26T22:09:00.964Z,0.60
2022-12-26T22:11:48.135Z,0.28
2022-12-26T22:14:14.643Z,0.35
2022-12-26T22:16:41.386Z,0.40
2022-12-26T22:19:08.186Z,0.30
2022-12-26T22:21:35.251Z,0.60
2022-12-26T22:24:02.024Z,0.60
2022-12-26T22:26:29.842Z,0.52
2022-12-26T22:28:57.360Z,0.40
2022-12-26T22:31:27.101Z,0.63
2022-12-26T22:33:55.785Z,0.50
2022-12-26T22:36:22.762Z,0.55
2022-12-26T22:38:49.323Z,0.80
2022-12-26T22:41:16.002Z,0.80
2022-12-26T22:43:43.430Z,0.50
2022-12-26T22:46:10.282Z,0.75
2022-12-26T22:48:36.977Z,0.60
2022-12-26T22:51:03.617Z,0.50
2022-12-26T22:53:31.207Z,1.00
2022-12-26T22:56:00.375Z,0.60
2022-12-26T22:58:27.634Z,0.70
2022-12-26T23:00:54.220Z,1.02
2022-12-26T23:03:21.019Z,0.60
2022-12-26T23:05:48.509Z,0.73
2022-12-26T23:08:18.646Z,0.57
2022-12-26T23:10:46.229Z,0.75
2022-12-26T23:13:14.315Z,0.60
2022-12-26T23:15:52.239Z,0.55
2022-12-26T23:18:45.887Z,0.60
2022-12-26T23:21:38.670Z,0.65
2022-12-26T23:24:07.582Z,0.60
2022-12-26T23:26:34.592Z,0.73
2022-12-26T23:29:20.344Z,0.70
2022-12-26T23:31:46.917Z,0.90
2022-12-26T23:34:13.556Z,0.65
2022-12-26T23:36:40.126Z,0.63
2022-12-26T23:39:06.675Z,0.85
2022-12-26T23:41:33.302Z,0.40
2022-12-26T23:43:59.837Z,0.70
2022-12-26T23:46:26.508Z,0.60
2022-12-26T23:48:53.002Z,0.80
2022-12-26T23:51:19.589Z,0.88
2022-12-26T23:53:46.103Z,0.70
2022-12-26T23:56:12.590Z,0.83
2022-12-26T23:58:40.311Z,0.60
